Time;durP1;ratioP1;P1;durP2;ratioP2;P2;SDS_P1;SDS_P2;PMS_P1;PMS_P2;Temp;Humidity;BMP_temperature;BMP_pressure;BME280_temperature;BME280_humidity;BME280_pressure;Samples;Min_cycle;Max_cycle;Signal;HPM_P1;HPM_P2
2021/03/01 00:02:05;;;;;;;6.90;3.87;;;;;;;24.55;31.73;157597.44;1593598;90;22210;-70
2021/03/01 00:04:37;;;;;;;6.12;3.60;;;;;;;24.49;31.74;157582.84;1616237;88;21242;-70
2021/03/01 00:07:10;;;;;;;7.87;4.47;;;;;;;24.47;31.73;157577.58;1593547;90;21258;-70
2021/03/01 00:09:44;;;;;;;9.35;4.20;;;;;;;24.51;31.73;157586.86;1616209;89;21518;-71
2021/03/01 00:12:17;;;;;;;6.78;4.10;;;;;;;24.58;31.69;157605.41;1593378;90;21281;-72
2021/03/01 00:14:51;;;;;;;6.17;3.62;;;;;;;24.41;31.84;157561.58;1616080;89;21266;-70
2021/03/01 00:17:23;;;;;;;6.35;3.62;;;;;;;24.46;31.84;157573.56;1593602;90;21235;-70
2021/03/01 00:19:56;;;;;;;6.17;3.22;;;;;;;24.41;31.83;157561.58;1616288;89;21282;-70
2021/03/01 00:22:28;;;;;;;4.30;2.80;;;;;;;24.37;31.85;157549.66;1593522;90;21274;-70
2021/03/01 00:25:01;;;;;;;5.25;2.60;;;;;;;24.39;31.92;157554.97;1616211;89;21258;-70
2021/03/01 00:27:33;;;;;;;4.55;3.00;;;;;;;24.41;31.86;157560.28;1593671;90;21239;-70
2021/03/01 00:30:09;;;;;;;5.08;3.17;;;;;;;24.43;31.87;157566.91;1615184;89;21528;-70
2021/03/01 00:32:41;;;;;;;5.03;2.67;;;;;;;24.37;31.91;157549.66;1592857;90;21247;-70
2021/03/01 00:35:14;;;;;;;3.47;2.60;;;;;;;24.41;31.92;157560.28;1621534;88;21262;-70
2021/03/01 00:37:47;;;;;;;3.37;2.22;;;;;;;24.50;31.82;157584.19;1621834;88;21524;-70
2021/03/01 00:40:19;;;;;;;3.92;2.75;;;;;;;24.53;31.88;157592.17;1610211;89;21294;-70
2021/03/01 00:42:52;;;;;;;5.58;2.98;;;;;;;24.54;31.86;157594.78;1621692;88;21259;-70
2021/03/01 00:45:24;;;;;;;3.05;2.22;;;;;;;24.65;31.79;157624.02;1621763;88;21235;-70
2021/03/01 00:47:57;;;;;;;4.95;2.50;;;;;;;24.74;31.63;157649.19;1610203;89;21233;-70
2021/03/01 00:50:29;;;;;;;3.58;2.35;;;;;;;24.71;31.58;157642.56;1621827;88;21211;-70
2021/03/01 00:53:02;;;;;;;3.92;2.50;;;;;;;24.66;31.58;157627.97;1621749;88;21745;-70
2021/03/01 00:55:35;;;;;;;2.67;2.10;;;;;;;24.60;31.67;157610.72;1610187;89;22054;-70
2021/03/01 00:58:07;;;;;;;3.12;2.12;;;;;;;24.46;31.71;157573.56;1621653;88;21246;-70
2021/03/01 01:00:39;;;;;;;2.85;2.20;;;;;;;24.50;31.70;157584.19;1621735;88;21710;-70
2021/03/01 01:03:13;;;;;;;4.75;2.12;;;;;;;24.44;31.76;157569.56;1594720;90;21255;-70
2021/03/01 01:05:48;;;;;;;2.35;2.12;;;;;;;24.48;31.72;157580.19;1609622;89;21481;-70
2021/03/01 01:08:20;;;;;;;3.65;2.30;;;;;;;24.49;31.71;157581.53;1621755;88;21230;-70
2021/03/01 01:10:53;;;;;;;2.75;2.20;;;;;;;24.41;31.78;157561.58;1610191;89;21501;-70
2021/03/01 01:13:25;;;;;;;2.70;2.10;;;;;;;24.35;31.85;157545.69;1621733;88;21756;-70
2021/03/01 01:15:59;;;;;;;3.55;2.10;;;;;;;24.45;31.83;157570.91;1610230;89;22055;-70
2021/03/01 01:18:31;;;;;;;2.60;2.20;;;;;;;24.30;31.97;157531.09;1621836;88;21222;-70
2021/03/01 01:21:04;;;;;;;2.17;1.90;;;;;;;24.32;31.97;157537.72;1610340;89;21225;-69
2021/03/01 01:23:37;;;;;;;6.33;3.02;;;;;;;24.25;32.00;157519.13;1621827;88;21258;-70
2021/03/01 01:26:09;;;;;;;2.95;2.65;;;;;;;24.24;32.01;157516.52;1621913;88;21725;-70
2021/03/01 01:28:42;;;;;;;2.60;1.95;;;;;;;24.16;32.09;157493.95;1594824;90;22201;-70
2021/03/01 01:31:14;;;;;;;2.37;1.82;;;;;;;24.19;32.13;157501.92;1610290;89;21749;-70
2021/03/01 01:33:46;;;;;;;2.83;1.87;;;;;;;24.21;32.15;157507.19;1621841;88;21242;-70
2021/03/01 01:36:19;;;;;;;3.22;1.92;;;;;;;24.17;32.18;157496.61;1621765;88;21496;-70
2021/03/01 01:38:53;;;;;;;2.30;1.67;;;;;;;24.10;32.27;157478.02;1594747;90;21398;-70
2021/03/01 01:41:26;;;;;;;2.87;2.12;;;;;;;24.10;32.39;157478.02;1610271;89;21286;-70
2021/03/01 01:43:58;;;;;;;2.12;1.77;;;;;;;24.15;32.80;157492.59;1621744;88;21257;-70
2021/03/01 01:46:30;;;;;;;2.17;1.87;;;;;;;24.07;33.07;157470.09;1593926;89;21488;-70
2021/03/01 01:49:03;;;;;;;3.85;2.08;;;;;;;24.04;33.33;157463.42;1621932;88;21480;-71
2021/03/01 01:51:36;;;;;;;2.75;2.20;;;;;;;24.09;33.46;157476.70;1621802;88;21211;-70
2021/03/01 01:54:09;;;;;;;2.65;1.95;;;;;;;24.11;33.39;157482.03;1610338;89;21285;-70
2021/03/01 01:56:41;;;;;;;4.10;2.45;;;;;;;24.10;33.50;157479.36;1621825;88;21516;-70
2021/03/01 01:59:14;;;;;;;3.22;2.72;;;;;;;24.07;33.58;157471.39;1621825;88;21301;-70
2021/03/01 02:01:47;;;;;;;4.90;3.25;;;;;;;24.24;33.15;157515.16;1594807;90;21527;-70
2021/03/01 02:04:28;;;;;;;4.70;2.95;;;;;;;24.18;33.11;157499.27;1610237;88;21293;-70
2021/03/01 02:07:14;;;;;;;3.92;2.77;;;;;;;24.31;32.93;157535.06;1621838;88;21809;-70
2021/03/01 02:10:04;;;;;;;4.53;2.92;;;;;;;24.23;33.05;157513.86;1609992;88;21258;-70
2021/03/01 02:13:05;;;;;;;5.50;3.37;;;;;;;24.38;32.89;157552.31;1621068;88;22171;-69
2021/03/01 02:16:08;;;;;;;4.65;3.27;;;;;;;24.40;32.85;157558.92;1621617;88;22072;-70
2021/03/01 02:18:41;;;;;;;4.50;3.08;;;;;;;24.25;32.84;157517.81;1594785;90;21283;-70
2021/03/01 02:21:14;;;;;;;6.28;3.47;;;;;;;24.31;32.81;157535.06;1610237;89;21371;-70
2021/03/01 02:23:46;;;;;;;4.87;3.15;;;;;;;24.41;32.68;157560.28;1621909;88;21250;-70
2021/03/01 02:26:23;;;;;;;6.03;3.62;;;;;;;24.46;32.60;157574.92;1610203;89;21519;-70
2021/03/01 02:29:05;;;;;;;4.83;3.25;;;;;;;24.59;32.45;157609.42;1621861;88;21250;-70
2021/03/01 02:31:40;;;;;;;4.30;3.27;;;;;;;24.76;32.25;157654.50;1621548;88;21239;-69
2021/03/01 02:34:16;;;;;;;4.03;3.27;;;;;;;24.82;32.04;157671.75;1594759;90;21896;-69
2021/03/01 02:36:53;;;;;;;4.78;3.20;;;;;;;24.83;32.06;157674.41;1596758;89;21330;-69
2021/03/01 02:39:27;;;;;;;4.78;3.30;;;;;;;24.85;31.99;157678.38;1592210;89;21731;-69
2021/03/01 02:42:00;;;;;;;4.40;3.20;;;;;;;24.67;32.15;157631.94;1592283;90;21250;-69
2021/03/01 02:44:32;;;;;;;3.33;2.77;;;;;;;24.71;32.21;157642.56;1608537;89;21299;-69
2021/03/01 02:47:05;;;;;;;5.10;3.75;;;;;;;24.77;32.01;157658.47;1592131;90;21250;-70
2021/03/01 02:49:37;;;;;;;5.15;3.45;;;;;;;24.76;32.00;157655.86;1608450;89;21246;-69
2021/03/01 02:52:10;;;;;;;3.77;2.90;;;;;;;24.69;32.00;157637.25;1608538;89;21247;-69
2021/03/01 02:54:42;;;;;;;4.78;3.22;;;;;;;24.63;31.98;157618.69;1592245;90;21254;-69
2021/03/01 02:57:15;;;;;;;4.97;3.45;;;;;;;24.57;32.01;157602.75;1608461;89;21239;-69
2021/03/01 02:59:47;;;;;;;5.47;3.80;;;;;;;24.62;32.04;157616.03;1592216;90;21219;-69
2021/03/01 03:02:20;;;;;;;8.05;4.83;;;;;;;24.58;31.99;157605.41;1610527;87;21488;-69
2021/03/01 03:04:53;;;;;;;8.35;5.42;;;;;;;24.50;32.10;157585.50;1610750;89;21261;-69
2021/03/01 03:07:26;;;;;;;8.35;4.72;;;;;;;24.45;32.15;157572.27;1607881;89;22031;-69
2021/03/01 03:09:58;;;;;;;9.38;6.05;;;;;;;24.48;32.11;157580.19;1611382;89;21233;-69
2021/03/01 03:12:30;;;;;;;8.20;5.20;;;;;;;24.44;32.18;157568.20;1611442;89;21245;-69
2021/03/01 03:15:04;;;;;;;8.30;4.85;;;;;;;24.56;32.06;157601.44;1611387;89;21516;-69
2021/03/01 03:17:36;;;;;;;9.03;4.50;;;;;;;24.67;31.97;157631.94;1611361;89;21718;-69
2021/03/01 03:20:11;;;;;;;5.83;3.72;;;;;;;24.73;31.89;157647.88;1611468;89;21290;-69
2021/03/01 03:22:43;;;;;;;7.83;4.42;;;;;;;24.74;31.83;157650.53;1611496;89;21226;-69
2021/03/01 03:25:16;;;;;;;5.87;3.67;;;;;;;24.75;31.87;157653.20;1611453;89;21298;-69
2021/03/01 03:27:48;;;;;;;6.33;3.75;;;;;;;24.78;31.80;157661.12;1611353;89;21301;-69
2021/03/01 03:30:26;;;;;;;4.92;3.65;;;;;;;24.62;31.88;157617.34;1611562;89;21206;-69
2021/03/01 03:32:58;;;;;;;7.62;4.20;;;;;;;24.62;31.85;157616.03;1611374;89;21233;-69
2021/03/01 03:35:31;;;;;;;5.53;3.77;;;;;;;24.66;31.79;157629.28;1611464;89;21237;-69
2021/03/01 03:38:25;;;;;;;7.92;4.05;;;;;;;24.66;31.78;157627.97;1611475;89;21233;-69
2021/03/01 03:41:00;;;;;;;5.72;4.00;;;;;;;24.68;31.77;157634.59;1611371;89;21206;-70
2021/03/01 03:43:33;;;;;;;5.03;3.55;;;;;;;24.62;31.75;157616.03;1611360;89;21229;-69
2021/03/01 03:46:05;;;;;;;3.80;3.33;;;;;;;24.63;31.80;157620.00;1588159;89;21255;-69
2021/03/01 03:48:38;;;;;;;4.62;3.62;;;;;;;24.76;31.66;157655.86;1611435;89;21286;-69
2021/03/01 03:51:13;;;;;;;4.47;3.45;;;;;;;24.75;31.74;157653.20;1611271;89;21297;-69
2021/03/01 03:53:54;;;;;;;5.83;4.25;;;;;;;24.80;31.74;157666.44;1611454;89;21210;-69
2021/03/01 03:56:27;;;;;;;;;;;;;;;24.78;31.75;157659.81;1613809;89;21789;-69
2021/03/01 03:59:05;;;;;;;3.98;2.92;;;;;;;24.85;31.68;157678.38;1610701;89;20375;-71
2021/03/01 04:01:38;;;;;;;6.72;3.90;;;;;;;24.84;31.71;157675.72;1610749;89;21226;-71
2021/03/01 04:04:11;;;;;;;5.40;3.52;;;;;;;24.88;31.71;157686.34;1611272;89;21284;-71
2021/03/01 04:06:44;;;;;;;4.53;3.10;;;;;;;24.89;31.69;157689.00;1611346;89;21253;-70
2021/03/01 04:09:16;;;;;;;4.47;3.50;;;;;;;25.01;31.56;157720.86;1611336;89;22121;-71
2021/03/01 04:11:49;;;;;;;7.72;3.92;;;;;;;25.05;31.51;157732.80;1611399;89;21238;-70
2021/03/01 04:14:23;;;;;;;7.72;4.12;;;;;;;25.04;31.52;157730.14;1611329;89;21241;-68
2021/03/01 04:16:58;;;;;;;7.72;4.15;;;;;;;25.05;31.48;157732.80;1611364;89;21490;-68
2021/03/01 04:19:30;;;;;;;5.78;4.15;;;;;;;25.00;31.47;157718.20;1611175;89;21234;-69
2021/03/01 04:22:03;;;;;;;7.80;5.10;;;;;;;25.02;31.51;157723.52;1610444;89;21301;-69
2021/03/01 04:24:37;;;;;;;6.15;4.55;;;;;;;25.10;31.44;157746.09;1610606;89;21309;-70
2021/03/01 04:27:10;;;;;;;6.15;4.75;;;;;;;25.15;31.40;157759.38;1611132;89;21573;-71
2021/03/01 04:29:44;;;;;;;6.95;4.90;;;;;;;25.15;31.37;157759.38;1611332;89;21218;-71
2021/03/01 04:32:17;;;;;;;9.13;4.55;;;;;;;25.19;31.32;157768.67;1611431;89;21334;-71
2021/03/01 04:34:49;;;;;;;6.72;4.50;;;;;;;25.29;31.22;157795.25;1611428;89;21572;-69
2021/03/01 04:37:22;;;;;;;6.92;4.22;;;;;;;25.23;31.24;157780.61;1611339;89;21282;-69
2021/03/01 04:39:55;;;;;;;6.40;4.12;;;;;;;25.23;31.24;157779.30;1612259;87;21314;-69
2021/03/01 04:42:29;;;;;;;7.55;4.42;;;;;;;25.28;31.16;157792.59;1616881;88;21456;-69
2021/03/01 04:48:41;;;;;;;8.60;4.53;;;;;;;25.35;31.13;157811.16;1616619;88;21198;-70
2021/03/01 04:51:13;;;;;;;7.42;4.58;;;;;;;25.44;31.06;157836.41;1616767;88;21316;-74
2021/03/01 04:57:26;;;;;;;6.37;4.17;;;;;;;25.54;30.97;157862.94;1616611;88;21230;-74
2021/03/01 05:00:01;;;;;;;6.00;4.28;;;;;;;25.55;30.92;157864.25;1618171;88;22084;-71
2021/03/01 05:02:33;;;;;;;7.28;5.10;;;;;;;25.66;30.85;157894.81;1618286;88;21240;-74
2021/03/01 05:05:08;;;;;;;7.33;4.78;;;;;;;25.60;30.84;157878.86;1644617;86;21603;-78
2021/03/01 05:11:27;;;;;;;7.17;4.00;;;;;;;25.60;30.82;157878.86;1645255;86;21488;-72
2021/03/01 05:14:04;;;;;;;5.53;4.10;;;;;;;25.59;30.79;157876.19;1643028;86;21271;-72
2021/03/01 05:16:36;;;;;;;6.12;4.50;;;;;;;25.51;30.86;157853.66;1643477;86;21507;-72
2021/03/01 05:19:09;;;;;;;5.87;3.95;;;;;;;25.44;30.87;157836.41;1644690;86;21302;-72
2021/03/01 05:21:42;;;;;;;5.50;3.95;;;;;;;25.46;30.88;157840.38;1643441;86;21269;-72
2021/03/01 05:24:14;;;;;;;4.42;3.77;;;;;;;25.36;30.88;157815.13;1643232;86;22132;-72
2021/03/01 05:26:47;;;;;;;5.90;4.40;;;;;;;25.27;30.97;157789.94;1643990;86;21240;-72
2021/03/01 05:29:20;;;;;;;7.45;4.47;;;;;;;25.24;31.01;157783.27;1642709;86;21758;-73
2021/03/01 05:31:52;;;;;;;8.03;5.40;;;;;;;25.21;31.04;157775.34;1644695;86;21724;-72
2021/03/01 05:34:25;;;;;;;8.78;4.87;;;;;;;25.26;30.99;157788.59;1644220;86;21279;-72
2021/03/01 05:36:57;;;;;;;10.43;5.50;;;;;;;25.19;31.15;157768.67;1644901;86;21225;-72
2021/03/01 05:39:29;;;;;;;10.40;6.20;;;;;;;25.25;31.13;157785.92;1644195;86;21542;-71
2021/03/01 05:42:02;;;;;;;10.40;6.45;;;;;;;25.35;31.03;157812.47;1642541;86;21252;-71
2021/03/01 05:44:34;;;;;;;8.25;5.62;;;;;;;25.44;31.01;157835.05;1639942;87;22093;-70
2021/03/01 05:47:07;;;;;;;9.08;5.80;;;;;;;25.44;30.99;157836.41;1639895;87;21229;-68
2021/03/01 05:49:40;;;;;;;7.65;4.65;;;;;;;25.49;30.98;157849.64;1639973;87;21240;-69
2021/03/01 05:55:50;;;;;;;13.30;6.62;;;;;;;25.57;30.93;157869.56;1639447;87;21679;-72
2021/03/01 05:58:23;;;;;;;19.98;7.80;;;;;;;25.69;30.80;157902.80;1639473;87;21241;-71
2021/03/01 06:01:03;;;;;;;22.80;9.10;;;;;;;25.64;30.84;157890.80;1639445;87;21276;-71
2021/03/01 06:03:37;;;;;;;12.98;6.28;;;;;;;25.64;30.81;157889.50;1639679;87;21496;-71
2021/03/01 06:06:12;;;;;;;13.58;6.60;;;;;;;25.61;30.81;157882.88;1639829;87;21237;-72
2021/03/01 06:08:44;;;;;;;14.25;6.35;;;;;;;25.60;30.82;157878.86;1639615;87;21251;-72
2021/03/01 06:11:17;;;;;;;11.83;6.20;;;;;;;25.69;30.77;157902.80;1639744;87;22117;-71
2021/03/01 06:13:51;;;;;;;10.32;6.12;;;;;;;25.69;30.77;157904.09;1639797;87;21251;-71
2021/03/01 06:16:25;;;;;;;8.93;5.40;;;;;;;25.74;30.69;157916.05;1639870;87;22079;-71
2021/03/01 06:18:57;;;;;;;8.13;4.55;;;;;;;25.74;30.67;157917.41;1639764;87;21228;-71
2021/03/01 06:21:32;;;;;;;11.65;6.67;;;;;;;25.71;30.73;157908.06;1639832;87;21336;-71
2021/03/01 06:24:05;;;;;;;11.45;6.20;;;;;;;25.61;30.79;157881.52;1639882;87;21240;-71
2021/03/01 06:26:37;;;;;;;11.30;6.47;;;;;;;25.60;30.76;157880.22;1611470;87;21244;-70
2021/03/01 06:29:10;;;;;;;9.08;6.00;;;;;;;25.56;30.82;157868.27;1639659;87;21814;-71
2021/03/01 06:31:46;;;;;;;10.55;5.33;;;;;;;25.53;30.80;157858.94;1639698;87;21225;-71
2021/03/01 06:34:31;;;;;;;9.83;5.83;;;;;;;25.44;30.84;157835.05;1639712;87;21232;-70
2021/03/01 06:37:18;;;;;;;10.28;5.12;;;;;;;25.37;30.93;157816.48;1631038;87;21292;-71
2021/03/01 06:39:52;;;;;;;9.00;5.12;;;;;;;25.32;30.91;157803.19;1639904;87;21217;-72
2021/03/01 06:42:26;;;;;;;12.18;5.50;;;;;;;25.31;30.93;157801.87;1640439;87;21256;-72
2021/03/01 06:45:04;;;;;;;7.00;4.47;;;;;;;25.16;31.07;157762.05;1639611;87;22137;-72
2021/03/01 06:47:49;;;;;;;6.92;4.85;;;;;;;25.21;31.06;157773.98;1639473;87;21251;-72
2021/03/01 06:50:34;;;;;;;6.62;4.35;;;;;;;25.24;31.07;157781.97;1641545;87;21244;-71
2021/03/01 06:53:15;;;;;;;9.23;4.83;;;;;;;25.31;30.99;157801.87;1639288;87;21232;-72
2021/03/01 06:56:08;;;;;;;6.83;4.47;;;;;;;25.36;31.01;157815.13;1640805;87;21236;-71
2021/03/01 06:58:45;;;;;;;9.53;4.62;;;;;;;25.40;30.96;157825.77;1641087;87;21281;-71
2021/03/01 07:01:21;;;;;;;8.60;5.30;;;;;;;25.33;31.06;157807.20;1641192;87;21554;-71
2021/03/01 07:03:59;;;;;;;8.03;4.85;;;;;;;25.36;31.10;157815.13;1640681;87;21280;-71
2021/03/01 07:06:36;;;;;;;8.95;5.10;;;;;;;25.37;31.02;157817.78;1640746;87;21232;-71
2021/03/01 07:09:14;;;;;;;8.95;5.12;;;;;;;25.43;30.95;157833.75;1640549;87;21241;-71
2021/03/01 07:11:47;;;;;;;7.97;5.40;;;;;;;25.38;30.89;157820.44;1641473;87;21244;-71
2021/03/01 07:17:58;;;;;;;9.85;5.75;;;;;;;25.35;31.04;157812.47;1641060;87;21188;-70
2021/03/01 07:24:11;;;;;;;10.60;6.25;;;;;;;25.31;31.09;157801.87;1640229;87;21188;-73
2021/03/01 07:26:45;;;;;;;11.97;6.62;;;;;;;25.41;31.13;157827.06;1641206;87;21719;-73
2021/03/01 07:29:19;;;;;;;10.05;6.95;;;;;;;25.60;31.04;157880.22;1640511;87;21260;-71
2021/03/01 07:32:08;;;;;;;12.28;6.53;;;;;;;25.73;30.96;157913.38;1640981;87;21519;-71
2021/03/01 07:34:41;;;;;;;9.03;5.95;;;;;;;25.85;30.76;157946.66;1640346;87;22036;-74
2021/03/01 07:37:13;;;;;;;10.90;6.75;;;;;;;25.83;30.76;157939.98;1640089;87;22123;-74
2021/03/01 07:39:45;;;;;;;11.10;6.10;;;;;;;25.87;30.62;157950.63;1629274;87;22099;-73
2021/03/01 07:42:18;;;;;;;13.65;6.15;;;;;;;25.85;30.73;157945.31;1639744;87;21494;-72
2021/03/01 07:44:52;;;;;;;13.05;5.70;;;;;;;25.80;30.67;157933.36;1644090;86;21248;-76
2021/03/01 07:47:28;;;;;;;10.58;5.85;;;;;;;25.85;30.74;157945.31;1622250;87;21235;-75
2021/03/01 07:50:01;;;;;;;11.78;5.95;;;;;;;25.89;30.69;157955.95;1644422;87;21450;-70
2021/03/01 07:52:36;;;;;;;8.20;4.92;;;;;;;26.04;30.58;157997.11;1643947;87;21335;-72
2021/03/01 07:55:11;;;;;;;10.43;5.37;;;;;;;26.23;30.43;158046.27;1644302;87;22096;-76
2021/03/01 07:57:44;;;;;;;9.73;5.25;;;;;;;26.29;30.50;158063.53;1644602;87;21712;-71
2021/03/01 08:00:33;;;;;;;7.92;4.70;;;;;;;26.53;30.27;158127.37;1622471;87;21217;-70
2021/03/01 08:03:37;;;;;;;7.12;4.58;;;;;;;26.52;30.17;158123.34;1644809;87;21251;-70
2021/03/01 08:06:10;;;;;;;7.40;4.42;;;;;;;26.45;30.13;158104.77;1641525;86;21236;-72
2021/03/01 08:08:45;;;;;;;7.20;4.35;;;;;;;26.38;30.17;158086.13;1643085;87;21236;-72
2021/03/01 08:11:42;;;;;;;6.37;4.35;;;;;;;26.42;30.14;158098.14;1644665;87;21263;-72
2021/03/01 08:14:34;;;;;;;8.78;4.78;;;;;;;26.43;30.11;158100.80;1645410;87;21247;-71
2021/03/01 08:17:33;;;;;;;7.58;4.28;;;;;;;26.35;30.23;158078.16;1643095;87;21229;-74
2021/03/01 08:20:25;;;;;;;7.75;5.70;;;;;;;26.53;30.21;158127.37;1644835;87;21283;-72
2021/03/01 08:23:10;;;;;;;5.65;3.72;;;;;;;26.60;30.16;158147.30;1644024;87;21235;-71
2021/03/01 08:25:57;;;;;;;6.75;4.40;;;;;;;26.65;30.04;158159.25;1644263;87;21228;-71
2021/03/01 08:28:31;;;;;;;9.93;5.00;;;;;;;26.59;29.89;158144.64;1644059;86;21564;-71
2021/03/01 08:31:21;;;;;;;8.13;5.25;;;;;;;26.46;30.08;158108.73;1643640;86;21519;-71
2021/03/01 08:33:53;;;;;;;5.72;4.28;;;;;;;26.43;30.20;158099.44;1643582;87;21287;-72
2021/03/01 08:36:28;;;;;;;6.92;4.28;;;;;;;26.38;30.10;158086.13;1654818;86;21221;-71
2021/03/01 08:39:01;;;;;;;6.08;4.47;;;;;;;26.36;30.12;158082.13;1654962;86;21209;-72
2021/03/01 08:41:39;;;;;;;6.00;4.00;;;;;;;26.23;30.13;158046.27;1648355;86;22011;-71
2021/03/01 08:44:22;;;;;;;7.95;4.60;;;;;;;26.03;30.26;157993.16;1647781;87;21304;-71
2021/03/01 08:47:08;;;;;;;8.55;4.85;;;;;;;25.90;30.42;157959.92;1646592;87;21233;-71
2021/03/01 08:49:44;;;;;;;8.93;4.92;;;;;;;25.82;30.52;157938.69;1646452;87;22056;-72
2021/03/01 08:52:19;;;;;;;6.67;4.67;;;;;;;25.84;30.61;157944.00;1646453;87;21241;-72
2021/03/01 08:54:52;;;;;;;6.55;3.55;;;;;;;25.94;30.69;157970.56;1646477;87;21490;-72
2021/03/01 08:57:24;;;;;;;6.60;4.72;;;;;;;26.19;30.50;158035.63;1646552;87;21377;-72
2021/03/01 09:00:11;;;;;;;6.40;4.60;;;;;;;26.54;30.38;158131.34;1646438;87;21221;-72
2021/03/01 09:02:43;;;;;;;6.28;4.30;;;;;;;26.71;30.16;158175.17;1650107;86;21284;-72
2021/03/01 09:05:20;;;;;;;7.28;4.15;;;;;;;26.90;30.05;158227.02;1645707;87;21229;-72
2021/03/01 09:07:53;;;;;;;7.72;4.83;;;;;;;27.12;29.85;158285.55;1646535;87;21483;-72
2021/03/01 09:10:36;;;;;;;9.03;3.83;;;;;;;27.42;29.80;158365.34;1646535;87;21289;-72
2021/03/01 09:13:11;;;;;;;5.53;4.00;;;;;;;27.79;29.54;158465.12;1639940;87;21237;-71
2021/03/01 09:19:21;;;;;;;5.60;3.45;;;;;;;28.64;29.00;158692.66;1646331;87;21174;-74
2021/03/01 09:21:55;;;;;;;4.85;3.30;;;;;;;29.06;28.57;158804.50;1628463;87;21217;-73
2021/03/01 09:24:31;;;;;;;5.22;3.58;;;;;;;29.24;28.25;158851.09;1646425;87;21728;-73
2021/03/01 09:27:03;;;;;;;5.95;3.75;;;;;;;29.16;28.12;158831.17;1646385;87;21892;-73
2021/03/01 09:29:36;;;;;;;5.28;3.75;;;;;;;29.11;28.10;158817.84;1646369;87;21270;-73
2021/03/01 09:32:09;;;;;;;6.55;3.67;;;;;;;29.31;27.99;158871.08;1646340;87;21257;-73
2021/03/01 09:34:42;;;;;;;6.25;3.80;;;;;;;29.52;27.73;158927.06;1646420;87;21217;-73
2021/03/01 09:37:14;;;;;;;7.03;3.75;;;;;;;29.51;27.78;158925.75;1646395;87;21317;-73
2021/03/01 09:39:47;;;;;;;7.42;4.12;;;;;;;29.61;27.51;158951.06;1645433;87;21248;-73
2021/03/01 09:42:19;;;;;;;5.78;4.15;;;;;;;29.64;27.58;158959.02;1645583;87;21277;-73
2021/03/01 09:44:52;;;;;;;4.25;3.27;;;;;;;29.75;27.52;158988.31;1645836;87;21764;-73
2021/03/01 09:51:02;;;;;;;4.42;2.72;;;;;;;30.07;27.08;159073.66;1646300;87;21380;-73
2021/03/01 09:53:35;;;;;;;3.58;3.00;;;;;;;30.14;26.99;159093.66;1646419;87;21228;-73
2021/03/01 09:56:07;;;;;;;4.90;3.02;;;;;;;30.23;26.83;159117.63;1646509;87;21218;-73
2021/03/01 09:58:44;;;;;;;5.87;3.72;;;;;;;30.22;26.87;159113.59;1646423;87;21403;-73
2021/03/01 10:01:21;;;;;;;5.28;3.10;;;;;;;30.19;26.71;159105.64;1646533;87;21213;-73
2021/03/01 10:03:53;;;;;;;5.37;3.42;;;;;;;30.06;26.74;159072.31;1646501;87;21700;-73
2021/03/01 10:06:35;;;;;;;4.95;2.90;;;;;;;29.91;26.85;159032.31;1646407;87;21229;-73
2021/03/01 10:09:10;;;;;;;6.75;3.75;;;;;;;30.20;26.47;159109.63;1646425;87;21217;-73
2021/03/01 10:11:43;;;;;;;5.55;3.55;;;;;;;30.25;26.68;159122.97;1646210;87;21760;-73
2021/03/01 10:14:16;;;;;;;3.72;2.77;;;;;;;30.34;26.69;159148.25;1646429;87;22074;-73
2021/03/01 10:16:48;;;;;;;5.87;3.80;;;;;;;30.50;26.39;159190.97;1646478;87;21245;-73
2021/03/01 10:19:22;;;;;;;4.97;2.87;;;;;;;30.44;26.34;159173.58;1646352;87;21551;-73
2021/03/01 10:21:57;;;;;;;5.65;2.92;;;;;;;30.36;26.39;159152.28;1646249;87;21281;-72
2021/03/01 10:24:33;;;;;;;5.42;4.00;;;;;;;30.26;26.16;159125.64;1609227;87;21213;-72
2021/03/01 10:27:07;;;;;;;7.95;4.78;;;;;;;29.99;26.39;159052.31;1628410;87;21202;-72
2021/03/01 10:29:46;;;;;;;10.18;4.50;;;;;;;29.58;26.44;158943.06;1646078;87;21240;-73
2021/03/01 10:32:22;;;;;;;7.62;4.50;;;;;;;29.29;26.60;158864.44;1646075;87;21573;-73
2021/03/01 10:34:55;;;;;;;10.63;4.05;;;;;;;29.02;26.80;158792.53;1646052;87;21312;-72
2021/03/01 10:37:28;;;;;;;6.85;4.72;;;;;;;28.70;27.12;158708.61;1645906;87;21240;-73
2021/03/01 10:40:00;;;;;;;8.28;3.62;;;;;;;28.42;27.33;158631.45;1645894;87;21736;-73
2021/03/01 10:42:34;;;;;;;7.47;4.25;;;;;;;28.26;27.60;158590.22;1645859;87;21217;-72
2021/03/01 10:45:08;;;;;;;6.65;4.58;;;;;;;27.98;27.74;158514.34;1607905;87;21205;-73
2021/03/01 10:47:40;;;;;;;7.15;4.30;;;;;;;27.83;27.98;158474.42;1646236;87;21229;-72
2021/03/01 10:50:22;;;;;;;5.97;3.90;;;;;;;27.62;28.12;158419.83;1646378;87;21281;-72
2021/03/01 10:52:54;;;;;;;7.87;4.35;;;;;;;27.49;28.29;158383.94;1646430;87;21586;-73
2021/03/01 10:55:26;;;;;;;5.95;3.50;;;;;;;27.51;28.34;158389.27;1646514;87;21225;-72
2021/03/01 10:57:59;;;;;;;5.60;3.17;;;;;;;27.46;28.28;158375.95;1646370;87;21214;-72
2021/03/01 11:00:31;;;;;;;4.92;3.35;;;;;;;27.48;28.22;158382.64;1646522;87;21219;-73
2021/03/01 11:03:03;;;;;;;4.83;3.05;;;;;;;27.40;28.31;158360.02;1646405;87;21225;-73
2021/03/01 11:05:36;;;;;;;4.35;3.00;;;;;;;27.42;28.34;158365.34;1646507;87;21473;-73
2021/03/01 11:08:10;;;;;;;5.17;3.33;;;;;;;27.42;28.30;158363.98;1645088;86;21475;-73
2021/03/01 11:10:43;;;;;;;4.60;3.20;;;;;;;27.45;28.29;158371.98;1646346;87;21222;-73
2021/03/01 11:13:15;;;;;;;6.67;2.70;;;;;;;27.64;28.11;158425.20;1646463;87;21248;-73
2021/03/01 11:15:49;;;;;;;4.05;2.67;;;;;;;27.70;27.99;158441.19;1646344;87;21231;-73
2021/03/01 11:18:22;;;;;;;5.35;3.15;;;;;;;27.75;28.07;158453.16;1646365;87;21221;-73
2021/03/01 11:20:55;;;;;;;5.47;3.30;;;;;;;27.88;27.99;158487.75;1646347;87;22001;-73
2021/03/01 11:23:27;;;;;;;7.20;3.58;;;;;;;27.98;27.89;158514.34;1646054;87;21237;-73
2021/03/01 11:25:59;;;;;;;6.67;3.72;;;;;;;28.10;27.90;158546.27;1646370;87;22100;-73
2021/03/01 11:28:32;;;;;;;7.03;4.08;;;;;;;28.28;27.63;158594.19;1646289;87;21229;-72
2021/03/01 11:31:05;;;;;;;8.65;4.15;;;;;;;28.21;27.80;158576.84;1646299;87;21281;-73
2021/03/01 11:33:38;;;;;;;7.90;4.50;;;;;;;28.28;27.76;158594.19;1646456;87;21768;-73
2021/03/01 11:36:11;;;;;;;6.80;4.03;;;;;;;28.27;27.57;158592.88;1628691;87;21260;-73
2021/03/01 11:38:45;;;;;;;8.70;4.55;;;;;;;28.13;27.77;158555.56;1646104;87;21249;-73
2021/03/01 11:41:18;;;;;;;6.50;4.35;;;;;;;28.29;27.64;158596.84;1645865;87;21225;-73
2021/03/01 11:43:52;;;;;;;10.70;4.67;;;;;;;28.31;27.57;158603.50;1646125;87;21241;-72
2021/03/01 11:46:24;;;;;;;11.25;4.62;;;;;;;28.33;27.55;158608.83;1646278;87;21729;-73
2021/03/01 11:48:57;;;;;;;8.20;4.20;;;;;;;28.34;27.53;158611.48;1647713;87;21399;-72
2021/03/01 11:51:29;;;;;;;8.10;4.67;;;;;;;28.29;27.62;158596.84;1648368;87;21258;-73
2021/03/01 11:54:01;;;;;;;7.42;4.47;;;;;;;28.16;27.55;158562.20;1648228;87;21300;-73
2021/03/01 11:56:34;;;;;;;4.67;3.55;;;;;;;28.01;27.77;158522.33;1648205;87;21269;-71
2021/03/01 11:59:07;;;;;;;7.28;4.00;;;;;;;27.77;28.09;158459.78;1648283;87;21245;-73
2021/03/01 12:01:40;;;;;;;6.15;4.03;;;;;;;27.48;28.48;158382.64;1648303;87;21423;-72
2021/03/01 12:04:13;;;;;;;4.70;3.17;;;;;;;27.28;28.68;158328.11;1648252;87;21229;-75
2021/03/01 12:06:47;;;;;;;7.00;4.10;;;;;;;27.19;28.87;158302.84;1648360;87;21265;-72
2021/03/01 12:09:20;;;;;;;5.25;3.90;;;;;;;27.14;28.85;158290.88;1648276;87;21721;-68
2021/03/01 12:11:52;;;;;;;4.80;3.47;;;;;;;26.99;28.96;158250.94;1648208;87;21274;-72
2021/03/01 12:14:24;;;;;;;5.47;3.60;;;;;;;27.07;28.99;158272.28;1648244;87;21237;-72
2021/03/01 12:16:57;;;;;;;5.20;3.52;;;;;;;27.05;29.02;158265.61;1648231;87;21229;-73
2021/03/01 12:19:29;;;;;;;5.58;3.20;;;;;;;26.99;29.07;158249.63;1648300;87;21225;-75
2021/03/01 12:25:40;;;;;;;5.30;3.33;;;;;;;26.85;29.05;158212.41;1648279;87;21177;-77
2021/03/01 12:28:12;;;;;;;5.17;3.15;;;;;;;26.79;29.18;158197.78;1648208;87;22036;-77
2021/03/01 12:30:45;;;;;;;4.42;3.12;;;;;;;26.79;29.15;158196.47;1648164;87;21379;-74
2021/03/01 12:33:19;;;;;;;5.72;3.30;;;;;;;26.75;29.18;158187.12;1648296;87;21379;-75